Time;durP1;ratioP1;P1;durP2;ratioP2;P2;SDS_P1;SDS_P2;PMS_P1;PMS_P2;Temp;Humidity;BMP_temperature;BMP_pressure;BME280_temperature;BME280_humidity;BME280_pressure;Samples;Min_cycle;Max_cycle;Signal;HPM_P1;HPM_P2
2022/03/06 00:01:38;;;;;;;17.25;7.90;;;-0.10;99.90;;;;;;5056133;28;20376;-63
2022/03/06 00:04:03;;;;;;;22.95;8.50;;;2.20;99.90;;;;;;5054528;28;20028;-62
2022/03/06 00:06:29;;;;;;;19.60;7.95;;;-0.20;99.90;;;;;;5056136;28;20111;-62
2022/03/06 00:08:55;;;;;;;17.58;7.88;;;0.00;99.90;;;;;;5056027;28;20453;-62
2022/03/06 00:11:21;;;;;;;20.50;8.52;;;2.20;99.90;;;;;;5054687;28;20056;-63
2022/03/06 00:13:46;;;;;;;19.30;8.90;;;0.80;99.90;;;;;;5055978;28;20028;-64
2022/03/06 00:16:12;;;;;;;20.88;9.30;;;1.80;99.90;;;;;;5055851;28;20037;-63
2022/03/06 00:18:38;;;;;;;20.25;8.25;;;0.00;99.90;;;;;;5054523;28;20385;-63
2022/03/06 00:21:05;;;;;;;20.55;8.57;;;-0.30;99.90;;;;;;5056097;28;20054;-63
2022/03/06 00:23:31;;;;;;;24.25;9.90;;;-0.20;99.90;;;;;;5056136;28;20048;-62
2022/03/06 00:25:56;;;;;;;22.05;9.73;;;0.70;99.90;;;;;;5055704;28;20029;-65
2022/03/06 00:28:22;;;;;;;22.15;9.48;;;-0.20;99.90;;;;;;5055747;28;20380;-64
2022/03/06 00:30:48;;;;;;;22.50;9.57;;;-0.10;99.90;;;;;;5055451;28;20449;-63
2022/03/06 00:33:13;;;;;;;23.80;9.52;;;-0.20;99.90;;;;;;5055815;28;20084;-62
2022/03/06 00:35:39;;;;;;;21.23;8.38;;;-0.30;99.90;;;;;;5054376;28;20481;-63
2022/03/06 00:38:05;;;;;;;17.77;7.88;;;-0.30;99.90;;;;;;5055395;28;20025;-63
2022/03/06 00:40:31;;;;;;;17.65;8.63;;;0.80;99.90;;;;;;5055399;28;20112;-63
2022/03/06 00:42:56;;;;;;;21.65;8.23;;;-0.40;99.90;;;;;;5054061;28;20465;-63
2022/03/06 00:45:22;;;;;;;16.75;7.53;;;-0.40;99.90;;;;;;5054059;28;20071;-63
2022/03/06 00:47:47;;;;;;;21.27;8.45;;;-0.40;99.90;;;;;;5054019;28;20031;-63
2022/03/06 00:50:13;;;;;;;20.92;8.57;;;-0.40;99.90;;;;;;5055198;28;20087;-63
2022/03/06 00:52:39;;;;;;;20.13;8.38;;;0.20;99.90;;;;;;5053978;28;20476;-63
2022/03/06 00:55:06;;;;;;;25.58;10.07;;;0.10;99.90;;;;;;5053837;28;20351;-63
2022/03/06 00:57:32;;;;;;;20.42;9.30;;;-0.50;99.90;;;;;;5053749;28;20025;-63
2022/03/06 00:59:57;;;;;;;21.80;8.98;;;-0.50;99.90;;;;;;5053426;28;20035;-63
2022/03/06 01:02:23;;;;;;;24.35;9.57;;;0.60;99.90;;;;;;5055233;28;20032;-63
2022/03/06 01:04:49;;;;;;;25.10;10.30;;;1.80;99.90;;;;;;5055232;28;20377;-63
2022/03/06 01:07:15;;;;;;;20.08;9.02;;;-0.30;99.90;;;;;;5054857;28;20630;-63
2022/03/06 01:09:40;;;;;;;19.23;7.97;;;0.50;99.90;;;;;;5054869;28;20060;-63
2022/03/06 01:12:07;;;;;;;21.33;8.45;;;-0.10;99.90;;;;;;5054785;28;20027;-63
2022/03/06 01:14:32;;;;;;;20.58;9.82;;;-0.40;99.90;;;;;;5054670;28;20082;-63
2022/03/06 01:16:58;;;;;;;22.67;9.43;;;-0.40;99.90;;;;;;5054835;28;20037;-63
2022/03/06 01:19:24;;;;;;;19.88;8.70;;;-0.40;99.90;;;;;;5053354;28;20064;-63
2022/03/06 01:21:50;;;;;;;20.15;8.35;;;0.40;99.90;;;;;;5053269;28;20025;-63
2022/03/06 01:24:15;;;;;;;24.08;8.95;;;-0.40;99.90;;;;;;5053350;28;20029;-63
2022/03/06 01:26:41;;;;;;;22.25;9.50;;;0.50;99.90;;;;;;5053503;28;20036;-63
2022/03/06 01:29:07;;;;;;;22.98;10.07;;;0.20;99.90;;;;;;5053284;28;20116;-63
2022/03/06 01:31:32;;;;;;;22.83;9.30;;;-0.50;99.90;;;;;;5054559;28;20468;-63
2022/03/06 01:33:58;;;;;;;20.55;9.45;;;-0.50;99.90;;;;;;5054283;28;20033;-63
2022/03/06 01:36:24;;;;;;;19.55;9.00;;;-0.50;99.90;;;;;;5054988;28;20057;-63
2022/03/06 01:38:49;;;;;;;15.77;7.53;;;-0.50;99.90;;;;;;5054041;28;20032;-63
2022/03/06 01:41:15;;;;;;;22.98;10.00;;;1.70;99.90;;;;;;5053695;28;20389;-62
2022/03/06 01:43:41;;;;;;;22.58;10.00;;;-0.60;99.90;;;;;;5054206;28;20028;-63
2022/03/06 01:46:06;;;;;;;22.13;9.82;;;0.10;99.90;;;;;;5052610;28;20473;-63
2022/03/06 01:48:32;;;;;;;20.55;9.05;;;-0.60;99.90;;;;;;5054435;28;20021;-63
2022/03/06 01:50:58;;;;;;;22.95;9.30;;;-0.60;99.90;;;;;;5054099;28;20017;-63
2022/03/06 01:53:23;;;;;;;20.83;9.52;;;-0.60;99.90;;;;;;5053995;28;20163;-63
2022/03/06 01:55:49;;;;;;;24.52;9.98;;;-0.60;99.90;;;;;;5052791;28;20035;-63
2022/03/06 01:58:15;;;;;;;22.83;8.93;;;1.40;99.90;;;;;;5052726;28;20021;-63
2022/03/06 02:00:44;;;;;;;22.05;9.50;;;-0.60;99.90;;;;;;5052677;28;20028;-63
2022/03/06 02:03:10;;;;;;;;;;;1.80;99.90;;;;;;5053108;28;20388;-62
2022/03/06 02:05:38;;;;;;;19.70;8.73;;;-0.60;99.90;;;;;;5052626;28;19911;-62
2022/03/06 02:08:05;;;;;;;19.40;9.05;;;-0.70;99.90;;;;;;5052214;28;20075;-63
2022/03/06 02:10:31;;;;;;;23.23;9.70;;;-0.70;99.90;;;;;;5053855;28;20123;-66
2022/03/06 02:12:58;;;;;;;21.65;8.85;;;-0.70;99.90;;;;;;5053727;28;20469;-63
2022/03/06 02:15:24;;;;;;;19.83;9.38;;;-0.70;99.90;;;;;;5052649;28;20034;-62
2022/03/06 02:18:08;;;;;;;22.50;8.65;;;-0.30;99.90;;;;;;5052589;28;20029;-62
2022/03/06 02:20:34;;;;;;;22.15;9.30;;;-0.70;99.90;;;;;;5052456;28;20079;-62
2022/03/06 02:23:00;;;;;;;22.02;8.02;;;-0.70;99.90;;;;;;5053772;28;20033;-62
2022/03/06 02:25:28;;;;;;;20.80;9.05;;;-0.10;99.90;;;;;;5053572;28;20405;-63
2022/03/06 02:27:57;;;;;;;20.55;8.43;;;1.60;99.90;;;;;;5053662;28;20025;-63
2022/03/06 02:30:27;;;;;;;19.70;7.85;;;0.70;99.90;;;;;;5052384;28;20029;-62
2022/03/06 02:32:53;;;;;;;19.27;8.50;;;0.30;99.90;;;;;;5052223;28;20074;-63
2022/03/06 02:35:20;;;;;;;22.13;8.57;;;-0.80;99.90;;;;;;5053574;28;20031;-63
2022/03/06 02:37:47;;;;;;;19.85;8.80;;;0.70;99.90;;;;;;5053583;28;20021;-63
2022/03/06 02:40:14;;;;;;;20.40;8.98;;;0.00;99.90;;;;;;5052274;28;20025;-62
2022/03/06 02:42:43;;;;;;;20.00;9.05;;;-0.90;99.90;;;;;;5052227;28;20094;-62
2022/03/06 02:45:24;;;;;;;23.55;8.55;;;1.50;99.90;;;;;;5052201;28;20021;-63
2022/03/06 02:47:51;;;;;;;19.70;8.63;;;0.30;99.90;;;;;;5052208;28;20163;-62
2022/03/06 02:50:20;;;;;;;23.23;9.10;;;0.70;99.90;;;;;;5053211;28;20033;-62
2022/03/06 02:52:45;;;;;;;16.88;7.63;;;-0.90;99.90;;;;;;5055183;28;20021;-62
2022/03/06 02:55:12;;;;;;;23.85;9.18;;;-0.80;99.90;;;;;;5057356;28;20447;-63
2022/03/06 02:57:39;;;;;;;21.85;9.57;;;-0.90;99.90;;;;;;5057087;28;20082;-62
2022/03/06 03:00:08;;;;;;;22.02;9.32;;;0.40;99.90;;;;;;5057295;28;20033;-62
2022/03/06 03:02:34;;;;;;;20.23;9.18;;;-0.90;99.90;;;;;;5057485;28;20029;-62
2022/03/06 03:05:00;;;;;;;22.70;9.85;;;1.00;99.90;;;;;;5057336;28;20047;-62
2022/03/06 03:07:26;;;;;;;20.20;9.45;;;1.40;99.90;;;;;;5055699;28;20048;-62
2022/03/06 03:09:52;;;;;;;22.88;9.15;;;-1.00;99.90;;;;;;5056881;28;20032;-63
2022/03/06 03:12:18;;;;;;;21.33;9.50;;;0.80;99.90;;;;;;5055859;28;20035;-62
2022/03/06 03:14:44;;;;;;;24.88;10.90;;;-1.00;99.90;;;;;;5056950;28;20033;-62
2022/03/06 03:17:09;;;;;;;21.30;9.25;;;-1.00;99.90;;;;;;5057014;28;20109;-62
2022/03/06 03:19:35;;;;;;;20.85;9.18;;;1.30;99.90;;;;;;5056945;28;20021;-62
2022/03/06 03:22:00;;;;;;;21.17;9.35;;;0.30;99.90;;;;;;5055650;28;20158;-62
2022/03/06 03:24:26;;;;;;;28.50;10.55;;;0.70;99.90;;;;;;5056729;28;20067;-62
2022/03/06 03:26:52;;;;;;;17.55;8.55;;;-0.50;99.90;;;;;;5056845;28;20114;-62
2022/03/06 03:29:18;;;;;;;20.92;9.25;;;0.60;99.90;;;;;;5056816;28;20445;-62
2022/03/06 03:31:44;;;;;;;20.17;8.95;;;-1.00;99.90;;;;;;5056704;28;20021;-63
2022/03/06 03:34:09;;;;;;;23.10;10.30;;;1.00;99.90;;;;;;5056833;28;20044;-62
2022/03/06 03:36:35;;;;;;;20.58;9.23;;;-0.20;99.90;;;;;;5056889;28;20393;-62
2022/03/06 03:39:01;;;;;;;24.52;10.32;;;1.10;99.90;;;;;;5056704;28;20098;-62
2022/03/06 03:41:46;;;;;;;25.38;9.85;;;-1.10;99.90;;;;;;5055227;28;20025;-62
2022/03/06 03:44:11;;;;;;;22.58;9.27;;;-1.20;99.90;;;;;;5056548;28;20036;-62
2022/03/06 03:46:37;;;;;;;24.73;10.23;;;-0.90;99.90;;;;;;5056032;28;20434;-62
2022/03/06 03:49:03;;;;;;;24.00;9.50;;;-1.20;99.90;;;;;;5056378;28;20017;-62
2022/03/06 03:51:31;;;;;;;25.08;9.68;;;0.10;99.90;;;;;;5056335;28;20017;-63
2022/03/06 03:53:57;;;;;;;23.63;9.13;;;-1.20;99.90;;;;;;5055160;28;20032;-62
2022/03/06 03:56:22;;;;;;;24.88;10.55;;;-1.20;99.90;;;;;;5056527;28;20033;-63
2022/03/06 03:58:49;;;;;;;25.63;9.30;;;-0.50;99.90;;;;;;5056228;28;20453;-62
2022/03/06 04:01:17;;;;;;;26.33;9.82;;;0.50;99.90;;;;;;5056204;28;20032;-62
2022/03/06 04:03:43;;;;;;;23.25;9.65;;;-1.20;99.90;;;;;;5055339;28;20064;-62
2022/03/06 04:06:09;;;;;;;19.00;9.18;;;1.10;99.90;;;;;;5054654;28;20036;-62
2022/03/06 04:08:35;;;;;;;23.48;9.48;;;-1.30;99.90;;;;;;5056191;28;20025;-62
2022/03/06 04:11:00;;;;;;;20.92;9.05;;;-1.30;99.90;;;;;;5055998;28;20112;-62
2022/03/06 04:13:27;;;;;;;24.08;9.60;;;-0.20;99.90;;;;;;5054594;28;20064;-62
2022/03/06 04:15:52;;;;;;;22.55;9.60;;;-1.30;99.90;;;;;;5056027;28;20373;-62
2022/03/06 04:18:18;;;;;;;22.20;10.05;;;-0.60;99.90;;;;;;5055917;28;20158;-63
2022/03/06 04:20:44;;;;;;;21.58;9.27;;;-1.30;99.90;;;;;;5055825;28;20049;-62
2022/03/06 04:23:10;;;;;;;21.10;9.48;;;-0.90;99.90;;;;;;5055774;28;20029;-62
2022/03/06 04:25:35;;;;;;;19.88;9.60;;;0.80;99.90;;;;;;5055941;28;20029;-61
2022/03/06 04:28:01;;;;;;;20.58;9.48;;;-1.00;99.90;;;;;;5055659;28;20036;-62
2022/03/06 04:30:27;;;;;;;27.45;10.10;;;0.70;99.90;;;;;;5055788;28;20362;-62
2022/03/06 04:32:53;;;;;;;19.70;9.10;;;-1.40;99.90;;;;;;5055514;28;20104;-62
2022/03/06 04:35:18;;;;;;;19.45;8.15;;;-1.00;99.90;;;;;;5055567;28;20384;-63
2022/03/06 04:37:44;;;;;;;20.58;9.68;;;0.50;99.90;;;;;;5055778;28;20068;-62
2022/03/06 04:40:11;;;;;;;23.63;9.65;;;-1.40;99.90;;;;;;5055439;28;20028;-62
2022/03/06 04:42:37;;;;;;;19.75;9.50;;;-1.30;99.90;;;;;;5055776;28;20092;-62
2022/03/06 04:45:04;;;;;;;21.55;9.40;;;-1.30;99.90;;;;;;5055388;28;20033;-62
2022/03/06 04:47:29;;;;;;;20.30;8.77;;;-1.30;99.90;;;;;;5055667;28;20372;-62
2022/03/06 04:49:55;;;;;;;25.02;10.90;;;-1.30;99.90;;;;;;5054960;28;20025;-62
2022/03/06 04:52:21;;;;;;;22.08;9.43;;;-1.30;99.90;;;;;;5053952;28;20427;-62
2022/03/06 04:54:47;;;;;;;23.98;9.00;;;0.80;99.90;;;;;;5053790;28;20029;-62
2022/03/06 04:57:14;;;;;;;26.10;9.77;;;0.70;99.90;;;;;;5055069;28;20032;-62
2022/03/06 04:59:39;;;;;;;17.38;8.90;;;0.80;99.90;;;;;;5055216;28;20112;-62
2022/03/06 05:02:05;;;;;;;24.95;9.85;;;-1.40;99.90;;;;;;5055281;28;20122;-62
2022/03/06 05:04:31;;;;;;;20.50;9.18;;;0.40;99.90;;;;;;5053912;28;20029;-62
2022/03/06 05:06:57;;;;;;;23.55;9.35;;;-1.40;99.90;;;;;;5054427;28;20569;-62
2022/03/06 05:09:22;;;;;;;24.13;10.10;;;0.00;99.90;;;;;;5054640;28;20365;-62
2022/03/06 05:11:48;;;;;;;23.58;9.65;;;0.30;99.90;;;;;;5054569;28;20029;-62
2022/03/06 05:14:13;;;;;;;24.25;9.48;;;-0.90;99.90;;;;;;5054809;28;20029;-62
2022/03/06 05:16:39;;;;;;;22.83;9.57;;;-1.50;99.90;;;;;;5052399;28;20025;-62
2022/03/06 05:19:05;;;;;;;22.80;9.85;;;-1.50;99.90;;;;;;5053120;28;20119;-63
2022/03/06 05:21:30;;;;;;;19.52;8.82;;;0.50;99.90;;;;;;5053403;28;20115;-62
2022/03/06 05:23:56;;;;;;;22.63;9.93;;;-1.50;99.90;;;;;;5054641;28;20033;-62
2022/03/06 05:26:22;;;;;;;25.38;9.73;;;0.40;99.90;;;;;;5052968;28;20021;-62
2022/03/06 05:28:48;;;;;;;21.63;8.88;;;-0.60;99.90;;;;;;5053229;28;20025;-62
2022/03/06 05:31:13;;;;;;;23.92;10.73;;;-0.20;99.90;;;;;;5053170;28;20032;-62
2022/03/06 05:33:39;;;;;;;16.83;9.20;;;-0.80;99.90;;;;;;5054157;28;20025;-62
2022/03/06 05:36:05;;;;;;;21.95;9.40;;;-1.50;99.90;;;;;;5054085;28;20036;-62
2022/03/06 05:38:31;;;;;;;21.58;9.30;;;-1.60;99.90;;;;;;5054592;28;20043;-62
2022/03/06 05:40:56;;;;;;;23.25;10.02;;;-1.60;99.90;;;;;;5054060;28;20028;-63
2022/03/06 05:43:22;;;;;;;27.27;10.70;;;-0.70;99.90;;;;;;5053123;28;20116;-62
2022/03/06 05:45:50;;;;;;;24.60;11.07;;;-0.40;99.90;;;;;;5054194;28;20489;-62
2022/03/06 05:48:17;;;;;;;22.73;10.10;;;-0.40;99.90;;;;;;5054767;28;20350;-61
2022/03/06 05:50:43;;;;;;;26.05;9.57;;;0.80;99.90;;;;;;5054075;28;20029;-62
2022/03/06 05:53:09;;;;;;;24.60;9.70;;;-1.60;99.90;;;;;;5054140;28;20083;-62
2022/03/06 05:55:35;;;;;;;22.10;10.48;;;-1.30;99.90;;;;;;5052495;28;20036;-62
2022/03/06 05:58:01;;;;;;;31.58;11.30;;;-0.10;99.90;;;;;;5053718;28;20028;-61
2022/03/06 06:00:26;;;;;;;29.45;11.57;;;-0.90;99.90;;;;;;5054272;28;20028;-62
2022/03/06 06:02:52;;;;;;;27.15;11.23;;;-1.50;99.90;;;;;;5053960;28;20465;-62
2022/03/06 06:05:17;;;;;;;26.20;10.82;;;-0.50;99.90;;;;;;5053629;28;20063;-62
2022/03/06 06:07:43;;;;;;;32.03;11.05;;;0.50;99.90;;;;;;5052536;28;20048;-62
2022/03/06 06:10:10;;;;;;;28.42;11.60;;;-1.30;99.90;;;;;;5052543;28;20024;-62
2022/03/06 06:12:35;;;;;;;28.52;11.00;;;-1.30;99.90;;;;;;5053766;28;20029;-62
2022/03/06 06:15:20;;;;;;;33.08;11.23;;;-1.20;99.90;;;;;;5053689;28;20040;-62
2022/03/06 06:17:46;;;;;;;23.70;11.05;;;0.30;99.90;;;;;;5053771;28;20036;-62
2022/03/06 06:20:12;;;;;;;24.10;11.65;;;-0.90;99.90;;;;;;5053890;28;20025;-62
2022/03/06 06:22:38;;;;;;;23.38;11.10;;;-0.90;99.90;;;;;;5053768;28;20063;-62
2022/03/06 06:25:04;;;;;;;31.83;11.40;;;1.20;99.90;;;;;;5053683;28;20036;-62
2022/03/06 06:27:30;;;;;;;28.60;11.75;;;-0.90;99.90;;;;;;5053264;28;20033;-62
2022/03/06 06:29:55;;;;;;;25.55;11.43;;;-0.80;99.90;;;;;;5053775;28;20032;-62
2022/03/06 06:32:22;;;;;;;29.77;11.85;;;-0.30;99.90;;;;;;5053526;28;20061;-62
2022/03/06 06:34:48;;;;;;;24.95;11.65;;;0.90;99.90;;;;;;5053691;28;20025;-62
2022/03/06 06:37:14;;;;;;;26.77;11.65;;;-0.50;99.90;;;;;;5054146;28;20029;-62
2022/03/06 06:39:41;;;;;;;27.73;12.23;;;-0.20;99.90;;;;;;5052546;28;20535;-62
2022/03/06 06:42:07;;;;;;;31.50;12.88;;;2.20;99.90;;;;;;5052314;28;20052;-62
2022/03/06 06:44:33;;;;;;;29.95;12.52;;;0.40;99.90;;;;;;5052196;28;20025;-62
2022/03/06 06:46:59;;;;;;;30.55;12.40;;;0.70;99.90;;;;;;5053821;28;20100;-62
2022/03/06 06:49:25;;;;;;;26.00;11.95;;;0.90;99.90;;;;;;5053486;28;20107;-62
2022/03/06 06:51:51;;;;;;;28.85;11.75;;;1.70;99.90;;;;;;5053691;28;20112;-62
2022/03/06 06:54:16;;;;;;;26.73;11.77;;;1.00;99.90;;;;;;5053351;28;20488;-62
2022/03/06 06:56:43;;;;;;;32.00;13.52;;;1.10;99.90;;;;;;5052153;28;20476;-62
2022/03/06 06:59:09;;;;;;;28.63;13.15;;;1.10;99.90;;;;;;5053392;28;20032;-62
2022/03/06 07:01:34;;;;;;;30.15;11.50;;;1.00;99.90;;;;;;5053320;28;20415;-62
2022/03/06 07:04:00;;;;;;;26.08;11.88;;;1.70;99.90;;;;;;5053329;28;20033;-62
2022/03/06 07:06:26;;;;;;;27.70;12.43;;;1.10;99.90;;;;;;5052941;28;20400;-62
2022/03/06 07:08:51;;;;;;;29.95;12.00;;;1.10;99.90;;;;;;5052010;28;20087;-66
2022/03/06 07:11:17;;;;;;;26.48;12.52;;;1.20;99.90;;;;;;5053232;28;20071;-63
2022/03/06 07:13:43;;;;;;;26.83;11.23;;;1.40;99.90;;;;;;5053263;28;20029;-62
2022/03/06 07:16:08;;;;;;;22.80;10.63;;;1.70;99.90;;;;;;5051945;28;20029;-63
2022/03/06 07:18:34;;;;;;;27.25;12.77;;;1.80;99.90;;;;;;5053211;28;20021;-62
2022/03/06 07:21:02;;;;;;;27.90;11.98;;;1.80;99.90;;;;;;5053190;28;20143;-62
2022/03/06 07:23:30;;;;;;;26.30;10.98;;;1.90;99.90;;;;;;5052036;28;20025;-63
2022/03/06 07:25:57;;;;;;;25.40;12.23;;;2.20;99.90;;;;;;5052851;28;20447;-64
2022/03/06 07:28:22;;;;;;;28.15;12.23;;;2.40;99.90;;;;;;5051846;28;20431;-62
2022/03/06 07:30:48;;;;;;;27.40;12.38;;;2.50;99.90;;;;;;5053091;28;20024;-62
2022/03/06 07:33:14;;;;;;;26.95;13.02;;;2.70;99.90;;;;;;5053062;28;20376;-63
2022/03/06 07:35:40;;;;;;;24.50;11.25;;;2.80;99.90;;;;;;5053063;28;20036;-63
2022/03/06 07:38:06;;;;;;;22.20;10.90;;;3.00;99.90;;;;;;5053014;28;20495;-62
2022/03/06 07:40:32;;;;;;;24.45;12.30;;;3.30;99.90;;;;;;5054647;28;20029;-62
2022/03/06 07:42:58;;;;;;;26.73;11.43;;;3.70;99.90;;;;;;5056619;28;20021;-62
2022/03/06 07:45:24;;;;;;;26.42;11.88;;;4.20;99.90;;;;;;5056790;28;20021;-63
2022/03/06 07:47:50;;;;;;;26.05;12.30;;;4.60;99.90;;;;;;5055197;28;20579;-62
2022/03/06 07:50:16;;;;;;;24.92;12.77;;;5.00;99.60;;;;;;5056572;28;20029;-63
2022/03/06 07:52:42;;;;;;;24.02;13.05;;;5.30;97.90;;;;;;5055007;28;20552;-62
2022/03/06 07:55:09;;;;;;;25.77;12.48;;;5.40;97.20;;;;;;5056265;28;20033;-62
2022/03/06 07:57:35;;;;;;;26.58;12.07;;;5.40;96.70;;;;;;5055972;28;20060;-62
2022/03/06 08:00:01;;;;;;;22.63;11.70;;;5.30;96.40;;;;;;5056232;28;20433;-63
2022/03/06 08:02:27;;;;;;;23.00;10.25;;;5.40;95.70;;;;;;5056507;28;20473;-63
2022/03/06 08:04:52;;;;;;;23.25;11.13;;;5.40;93.80;;;;;;5055827;28;20064;-63
2022/03/06 08:07:18;;;;;;;22.23;10.48;;;5.50;94.50;;;;;;5054377;28;20052;-63
2022/03/06 08:09:44;;;;;;;16.88;9.40;;;5.50;92.40;;;;;;5054740;28;20032;-63
2022/03/06 08:12:10;;;;;;;17.75;9.43;;;5.70;91.10;;;;;;5054662;28;20028;-63
2022/03/06 08:14:35;;;;;;;16.42;9.43;;;6.00;86.00;;;;;;5054542;28;20037;-62
2022/03/06 08:17:01;;;;;;;20.08;10.25;;;6.30;86.10;;;;;;5056062;28;20052;-62
2022/03/06 08:19:27;;;;;;;15.25;8.57;;;6.60;81.30;;;;;;5056136;28;20029;-62
2022/03/06 08:21:52;;;;;;;13.63;8.15;;;7.10;70.20;;;;;;5055553;28;20037;-63
2022/03/06 08:24:18;;;;;;;16.65;9.35;;;7.00;67.60;;;;;;5054527;28;20195;-62
2022/03/06 08:26:43;;;;;;;17.67;8.73;;;6.90;67.00;;;;;;5055413;28;20035;-62
2022/03/06 08:29:10;;;;;;;17.15;9.85;;;7.10;68.50;;;;;;5054231;28;20057;-64
2022/03/06 08:31:35;;;;;;;19.55;9.32;;;7.10;67.60;;;;;;5053861;28;20033;-63
2022/03/06 08:34:01;;;;;;;19.08;10.02;;;7.00;70.30;;;;;;5055273;28;20025;-63
2022/03/06 08:36:26;;;;;;;17.92;10.60;;;6.90;69.60;;;;;;5054305;28;20025;-63
2022/03/06 08:38:52;;;;;;;19.65;10.45;;;6.80;71.80;;;;;;5054235;28;20025;-63
2022/03/06 08:41:18;;;;;;;16.50;9.45;;;6.90;72.90;;;;;;5054178;28;20025;-63
2022/03/06 08:43:44;;;;;;;17.20;10.00;;;6.80;68.70;;;;;;5054378;28;20405;-64
2022/03/06 08:46:09;;;;;;;15.43;9.20;;;6.70;68.70;;;;;;5054076;28;20052;-63
2022/03/06 08:48:38;;;;;;;17.73;9.18;;;6.40;66.40;;;;;;5055451;28;20025;-62
2022/03/06 08:51:05;;;;;;;14.88;8.90;;;6.30;68.10;;;;;;5055133;28;20025;-62
2022/03/06 08:53:31;;;;;;;16.63;9.13;;;6.20;69.80;;;;;;5055524;28;20120;-64
2022/03/06 08:55:58;;;;;;;17.45;9.43;;;6.40;69.40;;;;;;5054890;28;20112;-64
2022/03/06 08:58:23;;;;;;;17.27;9.40;;;6.50;69.70;;;;;;5054432;28;20478;-63
2022/03/06 09:00:49;;;;;;;17.90;8.85;;;6.50;66.80;;;;;;5054022;28;20056;-63
2022/03/06 09:03:14;;;;;;;16.75;9.63;;;6.20;68.80;;;;;;5053777;28;20035;-64
2022/03/06 09:05:40;;;;;;;18.67;9.77;;;6.40;68.70;;;;;;5055075;28;20059;-63
2022/03/06 09:08:10;;;;;;;18.52;10.50;;;6.50;68.50;;;;;;5054567;28;20087;-64
2022/03/06 09:10:37;;;;;;;19.45;9.38;;;6.50;69.40;;;;;;5053583;28;20025;-64
2022/03/06 09:13:04;;;;;;;16.45;9.32;;;6.50;69.50;;;;;;5054729;28;20104;-64
2022/03/06 09:15:30;;;;;;;20.70;10.55;;;6.20;66.50;;;;;;5054814;28;20032;-64
2022/03/06 09:17:56;;;;;;;19.77;11.60;;;6.20;69.70;;;;;;5054842;28;20021;-63
2022/03/06 09:20:21;;;;;;;20.42;10.90;;;6.00;72.30;;;;;;5053917;28;20488;-63
2022/03/06 09:22:47;;;;;;;18.88;9.68;;;5.90;75.40;;;;;;5054676;28;20100;-63
2022/03/06 09:25:13;;;;;;;18.73;9.98;;;5.90;73.20;;;;;;5054386;28;20025;-63
2022/03/06 09:27:39;;;;;;;24.98;10.23;;;5.90;72.90;;;;;;5054640;28;20090;-64
2022/03/06 09:30:05;;;;;;;12.85;8.23;;;6.20;74.00;;;;;;5053804;28;20480;-64
2022/03/06 09:32:31;;;;;;;17.38;9.25;;;6.70;64.40;;;;;;5054519;28;20125;-63
2022/03/06 09:34:57;;;;;;;16.38;8.82;;;6.70;64.50;;;;;;5054428;28;20468;-63
2022/03/06 09:37:22;;;;;;;18.30;10.40;;;6.70;65.00;;;;;;5054408;28;20457;-63
2022/03/06 09:39:48;;;;;;;15.27;8.50;;;6.30;66.10;;;;;;5054457;28;20110;-63
2022/03/06 09:42:17;;;;;;;20.65;9.63;;;6.70;63.40;;;;;;5054328;28;20104;-64
2022/03/06 09:44:46;;;;;;;16.27;8.77;;;6.40;62.90;;;;;;5053353;28;20029;-64
2022/03/06 09:47:13;;;;;;;16.90;9.35;;;7.00;63.10;;;;;;5054219;28;20031;-64
2022/03/06 09:49:38;;;;;;;17.75;10.10;;;8.20;60.00;;;;;;5054187;28;20029;-64
2022/03/06 09:52:05;;;;;;;20.60;9.18;;;9.20;55.50;;;;;;5053873;28;20028;-64
2022/03/06 09:54:30;;;;;;;17.35;10.02;;;9.90;52.00;;;;;;5052943;28;20028;-64
2022/03/06 09:56:57;;;;;;;17.85;10.63;;;9.90;51.90;;;;;;5054320;28;20075;-64
2022/03/06 09:59:23;;;;;;;18.13;10.40;;;9.30;50.80;;;;;;5054039;28;20021;-63
2022/03/06 10:01:49;;;;;;;22.65;10.13;;;9.50;51.90;;;;;;5053073;28;20052;-62
2022/03/06 10:04:25;;;;;;;18.23;10.68;;;10.20;50.40;;;;;;5052671;28;20063;-62
2022/03/06 10:07:05;;;;;;;16.35;9.82;;;9.90;47.10;;;;;;5052561;28;20548;-63
2022/03/06 10:09:33;;;;;;;16.00;9.07;;;10.50;47.30;;;;;;5053863;28;20029;-63
2022/03/06 10:11:59;;;;;;;16.67;9.88;;;11.10;45.70;;;;;;5053860;28;20088;-63
2022/03/06 10:14:41;;;;;;;14.98;9.32;;;11.60;43.80;;;;;;5053636;28;20424;-63
2022/03/06 10:17:30;;;;;;;15.02;9.52;;;11.50;43.20;;;;;;5053570;28;20025;-63
2022/03/06 10:20:12;;;;;;;17.10;9.57;;;10.40;43.30;;;;;;5052493;28;20029;-63
2022/03/06 10:22:43;;;;;;;15.75;9.90;;;9.10;45.80;;;;;;5052693;28;20461;-63
2022/03/06 10:25:20;;;;;;;15.60;9.77;;;8.50;47.30;;;;;;5053721;28;20036;-62
2022/03/06 10:27:54;;;;;;;18.70;9.90;;;8.70;47.60;;;;;;5053441;28;20536;-65
2022/03/06 10:30:37;;;;;;;20.42;10.50;;;9.30;47.50;;;;;;5052708;28;20488;-63
2022/03/06 10:33:10;;;;;;;19.52;11.10;;;10.30;46.30;;;;;;5053545;28;20111;-63
2022/03/06 10:35:44;;;;;;;17.70;10.27;;;10.10;47.80;;;;;;5053576;28;20033;-63
2022/03/06 10:38:20;;;;;;;19.88;10.93;;;8.80;48.50;;;;;;5053375;28;20036;-63
2022/03/06 10:40:47;;;;;;;17.48;10.40;;;7.50;50.80;;;;;;5053534;28;20021;-63
2022/03/06 10:43:23;;;;;;;20.08;10.00;;;6.90;52.80;;;;;;5053565;28;20087;-64
2022/03/06 10:45:51;;;;;;;17.20;9.43;;;6.50;55.70;;;;;;5052005;28;20029;-64
2022/03/06 10:48:17;;;;;;;19.30;9.52;;;6.00;57.60;;;;;;5053309;28;20029;-62
2022/03/06 10:50:43;;;;;;;19.83;9.63;;;5.70;59.50;;;;;;5053206;28;20465;-65
2022/03/06 10:53:19;;;;;;;17.13;9.55;;;5.40;61.10;;;;;;5053119;28;20032;-64
2022/03/06 10:55:45;;;;;;;18.52;9.27;;;5.70;61.20;;;;;;5053539;28;20090;-62
2022/03/06 10:58:13;;;;;;;14.40;9.20;;;7.20;57.90;;;;;;5053452;28;20025;-65
2022/03/06 11:00:39;;;;;;;15.25;8.85;;;8.10;51.30;;;;;;5053895;28;20029;-62
2022/03/06 11:03:07;;;;;;;17.50;8.95;;;9.00;49.40;;;;;;5053510;28;20083;-62
2022/03/06 11:05:33;;;;;;;15.13;8.68;;;9.70;47.40;;;;;;5053531;28;20021;-62
2022/03/06 11:08:00;;;;;;;13.88;8.50;;;10.30;43.90;;;;;;5053880;28;20489;-63
2022/03/06 11:10:27;;;;;;;13.15;8.32;;;9.40;44.00;;;;;;5052082;28;20492;-63
2022/03/06 11:12:53;;;;;;;15.50;9.43;;;8.40;45.40;;;;;;5052447;28;20459;-63
2022/03/06 11:15:20;;;;;;;15.10;8.80;;;7.80;48.00;;;;;;5057038;28;20032;-63
2022/03/06 11:17:46;;;;;;;13.27;7.95;;;7.40;48.20;;;;;;5055817;28;20025;-63
2022/03/06 11:20:12;;;;;;;17.02;8.43;;;6.80;49.40;;;;;;5057068;28;20082;-62
2022/03/06 11:22:52;;;;;;;14.35;7.93;;;6.10;51.30;;;;;;5057307;28;20021;-62
2022/03/06 11:25:25;;;;;;;16.10;8.18;;;5.60;54.00;;;;;;5055899;28;20040;-63
2022/03/06 11:28:14;;;;;;;15.95;8.95;;;5.70;55.90;;;;;;5057302;28;20100;-62
2022/03/06 11:30:40;;;;;;;14.10;8.90;;;5.60;56.50;;;;;;5055839;28;20021;-62
2022/03/06 11:33:09;;;;;;;15.40;8.60;;;5.60;57.00;;;;;;5056941;28;20372;-62
2022/03/06 11:35:42;;;;;;;14.68;8.25;;;5.70;57.50;;;;;;5055707;28;20079;-62
2022/03/06 11:38:11;;;;;;;18.70;8.73;;;5.40;58.00;;;;;;5056826;28;20401;-61
2022/03/06 11:40:54;;;;;;;18.75;9.20;;;4.80;60.10;;;;;;5055465;28;20025;-62
2022/03/06 11:43:30;;;;;;;15.05;8.18;;;4.40;62.00;;;;;;5055331;28;20041;-62
2022/03/06 11:46:12;;;;;;;14.77;8.70;;;4.20;66.10;;;;;;5055102;28;20033;-62
2022/03/06 11:48:37;;;;;;;20.10;9.30;;;4.30;67.40;;;;;;5056836;28;20098;-62
2022/03/06 11:51:19;;;;;;;17.15;9.43;;;4.50;69.60;;;;;;5055116;28;20457;-62
2022/03/06 11:54:02;;;;;;;19.13;10.00;;;4.60;69.90;;;;;;5054928;28;20033;-62
2022/03/06 11:56:31;;;;;;;16.80;8.80;;;4.60;67.60;;;;;;5055113;28;20029;-62
2022/03/06 11:58:57;;;;;;;18.45;9.20;;;4.50;69.90;;;;;;5056253;28;20415;-62
2022/03/06 12:01:37;;;;;;;18.58;9.80;;;4.40;71.20;;;;;;5056194;28;20033;-62
2022/03/06 12:04:11;;;;;;;19.30;9.55;;;4.50;72.10;;;;;;5055360;28;20079;-62
2022/03/06 12:06:47;;;;;;;19.67;9.20;;;4.40;72.00;;;;;;5054734;28;20049;-62
2022/03/06 12:09:16;;;;;;;15.40;8.60;;;4.00;72.20;;;;;;5054753;28;20025;-62
2022/03/06 12:11:43;;;;;;;17.10;8.55;;;3.90;74.30;;;;;;5055744;28;20036;-62
2022/03/06 12:14:19;;;;;;;19.95;8.52;;;4.00;74.10;;;;;;5055926;28;20029;-62
2022/03/06 12:17:10;;;;;;;22.52;8.77;;;4.10;74.00;;;;;;5055946;28;20025;-62
2022/03/06 12:19:42;;;;;;;18.75;8.60;;;4.10;73.10;;;;;;5054621;28;20029;-62
2022/03/06 12:22:19;;;;;;;16.50;8.57;;;4.10;72.20;;;;;;5054648;28;20021;-62
2022/03/06 12:25:09;;;;;;;17.13;9.45;;;4.20;73.00;;;;;;5053925;28;20064;-63
2022/03/06 12:27:56;;;;;;;16.00;8.40;;;4.40;74.30;;;;;;5056164;28;20108;-64
2022/03/06 12:30:24;;;;;;;20.38;9.35;;;4.50;73.60;;;;;;5051647;28;20048;-64
2022/03/06 12:32:49;;;;;;;16.70;8.77;;;4.60;72.10;;;;;;5055810;28;20052;-64
2022/03/06 12:35:17;;;;;;;19.75;8.93;;;4.60;71.70;;;;;;5055566;28;20747;-69
2022/03/06 12:37:54;;;;;;;16.25;8.85;;;4.50;69.10;;;;;;5055585;28;20029;-66
2022/03/06 12:40:25;;;;;;;16.85;9.38;;;4.40;71.40;;;;;;5054396;28;20052;-67
2022/03/06 12:42:58;;;;;;;14.45;8.20;;;4.50;71.90;;;;;;5055586;28;20024;-63